Time,TemperatureF,DewpointF,PressureIn,WindDirection,WindDirectionDegrees,WindSpeedMPH,WindSpeedGustMPH,Humidity,HourlyPrecipIn,Conditions,Clouds,dailyrainin,SoftwareType,DateUTC
2017-02-26 00:02:00,42.1,38.5,29.61,NW,310,15.0,15.0,87,0.01,,,0.00,meteobridge,2017-02-26 05:02:00,
2017-02-26 00:07:00,41.9,38.3,29.61,NW,321,8.9,20.0,87,0.00,,,0.00,meteobridge,2017-02-26 05:07:00,
2017-02-26 00:13:00,42.1,37.6,29.62,NNW,332,8.9,16.0,84,0.00,,,0.00,meteobridge,2017-02-26 05:13:00,
2017-02-26 00:18:00,42.1,37.2,29.61,NW,320,10.1,19.0,83,0.00,,,0.00,meteobridge,2017-02-26 05:18:00,
2017-02-26 00:23:00,42.1,37.2,29.63,NNW,333,8.1,12.0,83,0.00,,,0.00,meteobridge,2017-02-26 05:23:00,
2017-02-26 00:28:00,42.1,37.2,29.65,NW,309,6.9,9.0,83,0.00,,,0.00,meteobridge,2017-02-26 05:28:00,
2017-02-26 00:33:00,41.9,37.0,29.63,NW,323,6.0,13.0,83,0.00,,,0.00,meteobridge,2017-02-26 05:33:00,
2017-02-26 00:38:00,41.9,37.0,29.64,NNW,329,6.9,11.0,83,0.00,,,0.00,meteobridge,2017-02-26 05:38:00,
2017-02-26 00:43:00,41.7,36.3,29.62,NW,326,8.9,20.0,81,0.00,,,0.00,meteobridge,2017-02-26 05:43:00,
2017-02-26 00:48:00,41.7,36.3,29.62,NW,325,8.9,11.0,81,0.00,,,0.00,meteobridge,2017-02-26 05:48:00,
2017-02-26 00:53:00,41.7,36.3,29.63,NW,321,8.1,11.0,81,0.00,,,0.00,meteobridge,2017-02-26 05:53:00,
2017-02-26 00:58:00,41.5,36.1,29.63,NW,326,6.9,9.0,81,0.00,,,0.00,meteobridge,2017-02-26 05:58:00,
2017-02-26 01:03:00,41.5,36.1,29.63,NW,324,8.1,12.0,81,0.00,,,0.00,meteobridge,2017-02-26 06:03:00,
2017-02-26 01:08:00,41.5,36.1,29.65,NW,314,6.0,10.0,81,0.00,,,0.00,meteobridge,2017-02-26 06:08:00,
2017-02-26 01:13:00,41.5,36.1,29.66,NW,314,8.1,11.0,81,0.00,,,0.00,meteobridge,2017-02-26 06:13:00,
2017-02-26 01:18:00,41.5,35.8,29.65,NNW,335,8.9,11.0,80,0.00,,,0.00,meteobridge,2017-02-26 06:18:00,
2017-02-26 01:23:00,41.5,36.1,29.66,NW,308,8.1,10.0,81,0.00,,,0.00,meteobridge,2017-02-26 06:23:00,
2017-02-26 01:28:00,41.5,36.5,29.67,WNW,303,8.9,13.0,82,0.00,,,0.00,meteobridge,2017-02-26 06:28:00,
2017-02-26 01:33:00,41.5,37.0,29.68,NW,306,6.0,12.0,84,0.00,,,0.00,meteobridge,2017-02-26 06:33:00,
2017-02-26 01:38:00,41.4,37.2,29.69,NW,311,8.1,13.0,85,0.00,,,0.00,meteobridge,2017-02-26 06:38:00,
2017-02-26 01:43:00,41.2,37.0,29.68,NW,314,8.1,13.0,85,0.00,,,0.00,meteobridge,2017-02-26 06:43:00,
2017-02-26 01:48:00,41.2,37.4,29.68,WNW,300,11.0,15.0,86,0.00,,,0.00,meteobridge,2017-02-26 06:48:00,
2017-02-26 01:53:00,41.2,37.0,29.68,NW,304,8.1,14.0,85,0.00,,,0.00,meteobridge,2017-02-26 06:53:00,
2017-02-26 01:58:00,41.2,37.0,29.68,NW,321,11.0,14.0,85,0.00,,,0.00,meteobridge,2017-02-26 06:58:00,
2017-02-26 02:03:00,41.2,37.0,29.69,WNW,297,10.1,11.0,85,0.00,,,0.00,meteobridge,2017-02-26 07:03:00,
2017-02-26 02:08:00,41.0,36.9,29.68,NW,309,14.1,14.1,85,0.00,,,0.00,meteobridge,2017-02-26 07:08:00,
2017-02-26 02:13:00,40.8,37.0,29.69,WNW,300,12.1,16.0,86,0.00,,,0.00,meteobridge,2017-02-26 07:13:00,
2017-02-26 02:18:00,40.8,37.0,29.70,NW,310,6.9,10.0,86,0.00,,,0.00,meteobridge,2017-02-26 07:18:00,
2017-02-26 02:24:00,40.6,37.0,29.70,WNW,302,8.1,12.0,87,0.00,,,0.00,meteobridge,2017-02-26 07:24:00,
2017-02-26 02:29:00,40.6,37.4,29.70,WNW,299,8.1,9.0,88,0.00,,,0.00,meteobridge,2017-02-26 07:29:00,
2017-02-26 02:34:00,40.6,37.4,29.70,WNW,297,6.9,10.0,88,0.00,,,0.00,meteobridge,2017-02-26 07:34:00,
2017-02-26 02:39:00,40.5,37.4,29.70,WNW,297,6.0,10.0,89,0.00,,,0.00,meteobridge,2017-02-26 07:39:00,
2017-02-26 02:44:00,40.5,37.4,29.70,WNW,303,6.0,9.0,89,0.00,,,0.00,meteobridge,2017-02-26 07:44:00,
2017-02-26 02:49:00,40.5,37.2,29.70,WNW,295,4.9,13.0,88,0.00,,,0.00,meteobridge,2017-02-26 07:49:00,
2017-02-26 02:54:00,40.3,37.0,29.70,NW,311,8.9,13.0,88,0.00,,,0.00,meteobridge,2017-02-26 07:54:00,
2017-02-26 02:59:00,40.5,36.9,29.70,NW,305,6.0,13.0,87,0.00,,,0.00,meteobridge,2017-02-26 07:59:00,
2017-02-26 03:04:00,40.5,36.3,29.71,NW,310,11.0,17.0,85,0.00,,,0.00,meteobridge,2017-02-26 08:04:00,
2017-02-26 03:09:00,40.6,36.5,29.71,NW,304,10.1,17.0,85,0.00,,,0.00,meteobridge,2017-02-26 08:09:00,
2017-02-26 03:14:00,40.5,36.3,29.71,NW,316,8.9,17.0,85,0.00,,,0.00,meteobridge,2017-02-26 08:14:00,
2017-02-26 03:19:00,40.5,36.7,29.72,WNW,298,8.9,15.0,86,0.00,,,0.00,meteobridge,2017-02-26 08:19:00,
2017-02-26 03:24:00,40.5,36.3,29.72,NW,306,6.9,14.0,85,0.00,,,0.00,meteobridge,2017-02-26 08:24:00,
2017-02-26 03:29:00,40.5,36.3,29.72,NW,315,8.9,17.0,85,0.00,,,0.00,meteobridge,2017-02-26 08:29:00,
2017-02-26 03:34:00,40.5,36.3,29.72,NW,314,10.1,14.0,85,0.00,,,0.00,meteobridge,2017-02-26 08:34:00,
2017-02-26 03:39:00,40.5,35.8,29.72,NW,312,11.0,16.0,83,0.00,,,0.00,meteobridge,2017-02-26 08:39:00,
2017-02-26 03:44:00,40.5,35.4,29.73,WNW,303,8.9,14.0,82,0.00,,,0.00,meteobridge,2017-02-26 08:44:00,
2017-02-26 03:49:00,40.6,35.2,29.73,NW,322,10.1,14.0,81,0.00,,,0.00,meteobridge,2017-02-26 08:49:00,
2017-02-26 03:54:00,40.6,34.9,29.73,NW,316,8.1,13.0,80,0.00,,,0.00,meteobridge,2017-02-26 08:54:00,
2017-02-26 03:59:00,40.6,34.3,29.73,NNW,344,12.1,14.0,78,0.00,,,0.00,meteobridge,2017-02-26 08:59:00,
2017-02-26 04:04:00,40.6,34.0,29.74,NW,319,11.0,17.0,77,0.00,,,0.00,meteobridge,2017-02-26 09:04:00,
2017-02-26 04:09:00,40.5,33.1,29.74,WNW,303,19.0,22.0,75,0.00,,,0.00,meteobridge,2017-02-26 09:09:00,
2017-02-26 04:14:00,40.5,31.8,29.74,NW,308,12.1,22.0,71,0.00,,,0.00,meteobridge,2017-02-26 09:14:00,
2017-02-26 04:19:00,40.5,30.4,29.75,NNW,333,11.0,21.0,67,0.00,,,0.00,meteobridge,2017-02-26 09:19:00,
2017-02-26 04:24:00,40.3,29.1,29.75,NW,317,14.1,22.0,64,0.00,,,0.00,meteobridge,2017-02-26 09:24:00,
2017-02-26 04:29:00,40.3,29.5,29.75,NNW,333,11.0,22.0,65,0.00,,,0.00,meteobridge,2017-02-26 09:29:00,
2017-02-26 04:34:00,40.1,30.0,29.76,NW,317,12.1,22.0,67,0.00,,,0.00,meteobridge,2017-02-26 09:34:00,
2017-02-26 04:39:00,39.9,30.6,29.77,WNW,299,11.0,20.0,69,0.00,,,0.00,meteobridge,2017-02-26 09:39:00,
2017-02-26 04:44:00,39.7,31.8,29.77,NW,304,6.9,14.0,73,0.00,,,0.00,meteobridge,2017-02-26 09:44:00,
2017-02-26 04:50:00,39.6,30.2,29.77,NW,312,11.0,20.0,69,0.00,,,0.00,meteobridge,2017-02-26 09:50:00,
2017-02-26 04:55:00,39.6,29.1,29.78,NW,313,12.1,22.0,66,0.00,,,0.00,meteobridge,2017-02-26 09:55:00,
2017-02-26 05:09:00,39.2,28.8,29.78,WNW,293,17.0,21.0,66,0.00,,,0.00,meteobridge,2017-02-26 10:09:00,
2017-02-26 05:14:00,39.2,27.3,29.78,NW,316,10.1,20.0,62,0.00,,,0.00,meteobridge,2017-02-26 10:14:00,
2017-02-26 05:19:00,39.0,28.2,29.79,NW,311,8.9,16.0,65,0.00,,,0.00,meteobridge,2017-02-26 10:19:00,
2017-02-26 05:24:00,39.0,28.6,29.80,WNW,290,14.1,21.0,66,0.00,,,0.00,meteobridge,2017-02-26 10:24:00,
2017-02-26 05:29:00,38.8,27.7,29.79,NW,321,16.1,19.0,64,0.00,,,0.00,meteobridge,2017-02-26 10:29:00,
2017-02-26 05:34:00,38.8,27.0,29.80,NNW,342,8.9,22.0,62,0.00,,,0.00,meteobridge,2017-02-26 10:34:00,
2017-02-26 05:39:00,38.7,27.1,29.80,WNW,293,17.9,23.0,63,0.00,,,0.00,meteobridge,2017-02-26 10:39:00,
2017-02-26 05:44:00,38.5,26.6,29.80,NW,316,8.9,30.0,62,0.00,,,0.00,meteobridge,2017-02-26 10:44:00,
2017-02-26 05:50:00,38.3,27.5,29.81,NW,307,12.1,20.0,65,0.00,,,0.00,meteobridge,2017-02-26 10:50:00,
2017-02-26 05:55:00,38.1,27.0,29.81,WNW,293,16.1,26.0,64,0.00,,,0.00,meteobridge,2017-02-26 10:55:00,
2017-02-26 06:00:00,38.1,26.2,29.82,WNW,297,15.0,22.0,62,0.00,,,0.00,meteobridge,2017-02-26 11:00:00,
2017-02-26 06:05:00,37.9,26.8,29.82,WNW,300,11.0,20.0,64,0.00,,,0.00,meteobridge,2017-02-26 11:05:00,
2017-02-26 06:10:00,37.9,27.1,29.82,NW,309,12.1,23.0,65,0.00,,,0.00,meteobridge,2017-02-26 11:10:00,
2017-02-26 06:15:00,37.9,27.1,29.83,NW,316,12.1,18.0,65,0.00,,,0.00,meteobridge,2017-02-26 11:15:00,
2017-02-26 06:20:00,37.9,28.8,29.83,NW,315,10.1,15.0,69,0.00,,,0.00,meteobridge,2017-02-26 11:20:00,
2017-02-26 06:25:00,37.8,27.1,29.83,NW,317,8.1,17.0,65,0.00,,,0.00,meteobridge,2017-02-26 11:25:00,
2017-02-26 06:30:00,37.8,26.6,29.84,WNW,290,11.0,20.0,64,0.00,,,0.00,meteobridge,2017-02-26 11:30:00,
2017-02-26 06:35:00,37.8,27.9,29.85,WNW,303,10.1,18.0,67,0.00,,,0.00,meteobridge,2017-02-26 11:35:00,
2017-02-26 06:40:00,37.8,27.1,29.85,NW,309,11.0,14.0,65,0.00,,,0.00,meteobridge,2017-02-26 11:40:00,
2017-02-26 06:45:00,37.8,27.9,29.85,NNW,345,10.1,18.0,67,0.00,,,0.00,meteobridge,2017-02-26 11:45:00,
2017-02-26 06:50:00,37.8,27.5,29.85,WNW,287,11.0,15.0,66,0.00,,,0.00,meteobridge,2017-02-26 11:50:00,
2017-02-26 06:55:00,37.8,28.2,29.86,NW,307,6.9,13.0,68,0.00,,,0.00,meteobridge,2017-02-26 11:55:00,
2017-02-26 07:00:00,37.9,28.4,29.86,WNW,299,8.9,12.0,68,0.00,,,0.00,meteobridge,2017-02-26 12:00:00,
2017-02-26 07:05:00,37.9,28.0,29.86,WNW,285,12.1,15.0,67,0.00,,,0.00,meteobridge,2017-02-26 12:05:00,
2017-02-26 07:10:00,37.9,26.8,29.87,WNW,302,13.0,14.0,64,0.00,,,0.00,meteobridge,2017-02-26 12:10:00,
2017-02-26 07:15:00,37.9,28.8,29.87,WNW,300,13.0,13.0,69,0.00,,,0.00,meteobridge,2017-02-26 12:15:00,
2017-02-26 07:20:00,37.9,28.8,29.87,NW,305,10.1,11.0,69,0.00,,,0.00,meteobridge,2017-02-26 12:20:00,
2017-02-26 07:26:00,37.9,28.8,29.87,WNW,295,10.1,15.0,69,0.00,,,0.00,meteobridge,2017-02-26 12:26:00,
2017-02-26 07:31:00,37.9,27.7,29.88,NW,316,8.1,17.0,66,0.00,,,0.00,meteobridge,2017-02-26 12:31:00,
2017-02-26 07:36:00,37.9,27.1,29.88,WNW,294,8.1,20.0,65,0.00,,,0.00,meteobridge,2017-02-26 12:36:00,